Map

Track Data

SID SEASON NUMBER BASIN SUBBASIN NAME ISO_TIME NATURE LAT LON WMO_WIND WMO_PRES WMO_AGENCY TRACK_TYPE DIST2LAND LANDFALL IFLAG USA_AGENCY USA_ATCF_ID USA_LAT USA_LON USA_RECORD USA_STATUS USA_WIND USA_PRES USA_SSHS USA_R34_NE USA_R34_SE USA_R34_SW USA_R34_NW USA_R50_NE USA_R50_SE USA_R50_SW USA_R50_NW USA_R64_NE USA_R64_SE USA_R64_SW USA_R64_NW USA_POCI USA_ROCI USA_RMW USA_EYE TOKYO_LAT TOKYO_LON TOKYO_GRADE TOKYO_WIND TOKYO_PRES TOKYO_R50_DIR TOKYO_R50_LONG TOKYO_R50_SHORT TOKYO_R30_DIR TOKYO_R30_LONG TOKYO_R30_SHORT TOKYO_LAND CMA_LAT CMA_LON CMA_CAT CMA_WIND CMA_PRES HKO_LAT HKO_LON HKO_CAT HKO_WIND HKO_PRES NEWDELHI_LAT NEWDELHI_LON NEWDELHI_GRADE NEWDELHI_WIND NEWDELHI_PRES NEWDELHI_CI NEWDELHI_DP NEWDELHI_POCI REUNION_LAT REUNION_LON REUNION_TYPE REUNION_WIND REUNION_PRES REUNION_TNUM REUNION_CI REUNION_RMW REUNION_R34_NE REUNION_R34_SE REUNION_R34_SW REUNION_R34_NW REUNION_R50_NE REUNION_R50_SE REUNION_R50_SW REUNION_R50_NW REUNION_R64_NE REUNION_R64_SE REUNION_R64_SW REUNION_R64_NW BOM_LAT BOM_LON BOM_TYPE BOM_WIND BOM_PRES BOM_TNUM BOM_CI BOM_RMW BOM_R34_NE BOM_R34_SE BOM_R34_SW BOM_R34_NW BOM_R50_NE BOM_R50_SE BOM_R50_SW BOM_R50_NW BOM_R64_NE BOM_R64_SE BOM_R64_SW BOM_R64_NW BOM_ROCI BOM_POCI BOM_EYE BOM_POS_METHOD BOM_PRES_METHOD NADI_LAT NADI_LON NADI_CAT NADI_WIND NADI_PRES WELLINGTON_LAT WELLINGTON_LON WELLINGTON_WIND WELLINGTON_PRES DS824_LAT DS824_LON DS824_STAGE DS824_WIND DS824_PRES TD9636_LAT TD9636_LON TD9636_STAGE TD9636_WIND TD9636_PRES TD9635_LAT TD9635_LON TD9635_WIND TD9635_PRES TD9635_ROCI NEUMANN_LAT NEUMANN_LON NEUMANN_CLASS NEUMANN_WIND NEUMANN_PRES MLC_LAT MLC_LON MLC_CLASS MLC_WIND MLC_PRES USA_GUST BOM_GUST BOM_GUST_PER REUNION_GUST REUNION_GUST_PER USA_SEAHGT USA_SEARAD_NE USA_SEARAD_SE USA_SEARAD_SW USA_SEARAD_NW STORM_SPEED STORM_DIR
2013229N26132 2013 49 WP MM NOT_NAMED 2013-08-16 12:00:00 NR 25.8000 131.500 main 585 560 O_____________ jtwc_wp WP132013 25.8000 131.500 DB 20 1007 -3 1008 180 45 7 311
2013229N26132 2013 49 WP MM NOT_NAMED 2013-08-16 15:00:00 NR 26.0452 131.190 main 560 525 P_____________ WP132013 26.0452 131.190 DB 22 1005 -3 1004 170 45 7 313
2013229N26132 2013 49 WP MM NOT_NAMED 2013-08-16 18:00:00 TS 26.3000 130.900 main 525 491 O_____________ jtwc_wp WP132013 26.3000 130.900 TD 25 1004 -1 1001 160 45 7 316
2013229N26132 2013 49 WP MM NOT_NAMED 2013-08-16 21:00:00 TS 26.5647 130.630 main 491 469 P_____________ WP132013 26.5647 130.630 TD 25 1002 -1 1001 167 45 7 315
2013229N26132 2013 49 WP MM NOT_NAMED 2013-08-17 00:00:00 TS 26.8000 130.340 main 470 451 O_O___________ jtwc_wp WP132013 26.8000 130.300 TD 25 1000 -1 1001 175 45 26.8000 130.500 1 29 1002 8 302
2013229N26132 2013 49 WP MM NOT_NAMED 2013-08-17 03:00:00 TS 26.9808 129.876 main 453 442 P_P___________ WP132013 26.9423 129.852 TD 25 999 -1 1001 177 42 27.0578 129.923 1 29 1002 10 293
2013229N26132 2013 49 WP MM NOT_NAMED 2013-08-17 06:00:00 TS 27.1857 129.300 main 445 438 O_O___________ jtwc_wp WP132013 27.1000 129.300 TD 25 998 -1 1001 180 40 27.3000 129.300 1 29 1002 12 293
2013229N26132 2013 49 WP MM NOT_NAMED 2013-08-17 09:00:00 TS 27.4497 128.659 main 446 437 P_P___________ WP132013 27.3844 128.710 TD 27 999 -1 1001 175 40 27.5150 128.607 1 29 1002 13 293
2013229N26132 2013 49 WP MM NOT_NAMED 2013-08-17 12:00:00 TS 27.7000 127.950 main 444 444 O_O___________ jtwc_wp WP132013 27.7000 128.000 TD 30 1000 -1 1001 170 40 27.7000 127.900 1 29 1002 14 289
2013229N26132 2013 49 WP MM NOT_NAMED 2013-08-17 15:00:00 TS 27.8925 127.182 main 468 446 P_P___________ WP132013 27.9430 127.115 TD 30 1000 -1 1000 160 40 27.8420 127.249 1 29 1001 14 286
2013229N26132 2013 49 WP MM NOT_NAMED 2013-08-17 18:00:00 TS 28.1000 126.400 main 446 370 O_O___________ jtwc_wp WP132013 28.2000 126.200 TD 30 1000 -1 999 150 40 28.0000 126.600 1 29 1000 14 291
2013229N26132 2013 49 WP MM NOT_NAMED 2013-08-17 21:00:00 TS 28.4110 125.649 main 361 296 P_P___________ WP132013 28.5872 125.391 TD 30 1000 -1 999 150 40 28.2348 125.907 1 29 1000 14 295
2013229N26132 2013 49 WP MM NOT_NAMED 2013-08-18 00:00:00 TS 28.7000 124.950 main 296 225 O_O___________ jtwc_wp WP132013 28.9000 124.700 TD 30 1000 -1 1000 150 40 28.5000 125.200 1 29 1000 13 291
2013229N26132 2013 49 WP MM NOT_NAMED 2013-08-18 03:00:00 TS 28.8736 124.305 main 225 177 P_P___________ WP132013 28.9595 124.147 TD 30 998 -1 1000 150 45 28.7876 124.463 1 29 1000 11 283
2013229N26132 2013 49 WP MM NOT_NAMED 2013-08-18 06:00:00 TS 28.9500 123.750 main 176 128 O_O___________ jtwc_wp WP132013 28.9000 123.700 TD 30 997 -1 1001 150 50 29.0000 123.800 1 29 1000 9 275
2013229N26132 2013 49 WP MM NOT_NAMED 2013-08-18 09:00:00 TS 28.9471 123.298 main 130 93 P_P___________ WP132013 28.8497 123.285 TD 27 998 -1 1001 150 45 29.0444 123.312 1 29 1000 7 266
2013229N26132 2013 49 WP MM NOT_NAMED 2013-08-18 12:00:00 TS 28.9000 122.900 main 93 58 O_O___________ jtwc_wp WP132013 28.8000 122.900 TD 25 999 -1 1001 150 40 29.0000 122.900 1 29 1000 7 264
2013229N26132 2013 49 WP MM NOT_NAMED 2013-08-18 15:00:00 TS 28.8675 122.460 main 58 34 P_P___________ WP132013 28.7774 122.492 TD 25 998 -1 1001 150 40 28.9575 122.427 1 29 998 7 266
2013229N26132 2013 49 WP MM NOT_NAMED 2013-08-18 18:00:00 TS 28.8500 122.050 main 34 0 O_O___________ jtwc_wp WP132013 28.8000 122.100 TD 25 998 -1 1001 150 40 28.9000 122.000 1 29 996 7 270
2013229N26132 2013 49 WP MM NOT_NAMED 2013-08-18 21:00:00 TS 28.8651 121.705 main 0 0 P_P___________ WP132013 28.8826 121.740 TD 22 1002 -1 1001 150 40 28.8475 121.670 1 27 998 6 275
2013229N26132 2013 49 WP MM NOT_NAMED 2013-08-19 00:00:00 TS 28.9000 121.400 main 0 O_O___________ jtwc_wp WP132013 29.0000 121.400 DB 20 1007 -3 1001 150 40 28.8000 121.400 1 25 1000 5 277

Digital Typhoon Data and Search

About IBTrACS Database

This database is a web-friendly format of International Best Track Archive for Climate Stewardship (IBTrACS), a global best track data archive curated by NOAA dating back to 1842.

Updated: 2021-10-21